Time;durP1;ratioP1;P1;durP2;ratioP2;P2;SDS_P1;SDS_P2;PMS_P1;PMS_P2;Temp;Humidity;BMP_temperature;BMP_pressure;BME280_temperature;BME280_humidity;BME280_pressure;Samples;Min_cycle;Max_cycle;Signal;HPM_P1;HPM_P2
2022/08/06 00:02:02;;;;;;;13.43;3.78;;;;;;;11.99;78.48;102406.97;5069813;28;20044;-75
2022/08/06 00:04:27;;;;;;;16.02;4.10;;;;;;;12.00;78.66;102403.34;5070124;28;20024;-75
2022/08/06 00:06:53;;;;;;;13.00;3.63;;;;;;;11.95;78.68;102402.72;5071301;28;20369;-75
2022/08/06 00:09:18;;;;;;;11.98;3.72;;;;;;;11.92;79.02;102406.44;5071899;28;20028;-75
2022/08/06 00:11:43;;;;;;;11.45;3.72;;;;;;;11.87;79.29;102404.00;5061684;28;20028;-75
2022/08/06 00:14:09;;;;;;;8.15;3.42;;;;;;;11.86;79.34;102409.47;5071205;28;20028;-75
2022/08/06 00:16:34;;;;;;;9.27;3.35;;;;;;;11.83;78.97;102415.00;5070721;28;20032;-75
2022/08/06 00:19:00;;;;;;;9.65;3.60;;;;;;;11.80;79.29;102407.06;5071719;28;20087;-75
2022/08/06 00:21:25;;;;;;;12.60;3.47;;;;;;;11.77;79.11;102412.63;5067854;28;20036;-75
2022/08/06 00:23:50;;;;;;;12.63;3.65;;;;;;;11.71;79.31;102419.22;5071958;28;20027;-75
2022/08/06 00:26:16;;;;;;;10.80;3.15;;;;;;;11.66;79.66;102422.16;5071338;28;20059;-75
2022/08/06 00:28:41;;;;;;;14.43;3.78;;;;;;;11.62;79.81;102427.78;5070202;28;20028;-75
2022/08/06 00:31:10;;;;;;;11.57;3.53;;;;;;;11.59;79.63;102428.81;5070847;28;20067;-75
2022/08/06 00:33:35;;;;;;;10.75;3.55;;;;;;;11.54;79.82;102429.06;5072232;28;20036;-75
2022/08/06 00:36:01;;;;;;;11.38;3.80;;;;;;;11.53;79.75;102429.13;5070282;28;20123;-75
2022/08/06 00:38:26;;;;;;;13.70;3.35;;;;;;;11.51;79.88;102426.53;5070973;28;20060;-75
2022/08/06 00:40:53;;;;;;;13.57;4.25;;;;;;;11.47;79.85;102429.47;5069503;28;20443;-75
2022/08/06 00:43:19;;;;;;;10.23;3.72;;;;;;;11.43;80.04;102423.34;5070461;28;20025;-75
2022/08/06 00:45:44;;;;;;;16.45;3.92;;;;;;;11.41;80.03;102419.00;5070824;28;20391;-75
2022/08/06 00:48:10;;;;;;;16.05;3.80;;;;;;;11.36;79.54;102421.91;5068107;28;20043;-75
2022/08/06 00:50:35;;;;;;;9.40;3.60;;;;;;;11.34;79.72;102434.59;5064597;28;20024;-75
2022/08/06 00:53:01;;;;;;;10.00;3.63;;;;;;;11.28;79.82;102437.59;5067041;28;20078;-75
2022/08/06 00:55:27;;;;;;;12.30;3.67;;;;;;;11.21;79.88;102444.25;5069321;28;20089;-75
2022/08/06 00:57:52;;;;;;;11.95;3.83;;;;;;;11.13;79.88;102445.50;5071675;28;20029;-75
2022/08/06 01:00:18;;;;;;;9.38;3.47;;;;;;;11.09;80.33;102440.34;5071023;28;20028;-75
2022/08/06 01:02:43;;;;;;;8.57;3.30;;;;;;;11.08;80.31;102438.59;5072209;28;20035;-75
2022/08/06 01:05:09;;;;;;;13.80;3.88;;;;;;;11.04;80.74;102445.97;5071702;28;20032;-75
2022/08/06 01:07:34;;;;;;;11.95;3.88;;;;;;;11.04;80.96;102458.53;5071089;28;20028;-75
2022/08/06 01:09:59;;;;;;;11.65;3.53;;;;;;;11.01;81.25;102455.06;5058266;28;20032;-75
2022/08/06 01:12:28;;;;;;;11.52;3.60;;;;;;;11.01;80.92;102464.94;5066742;28;20032;-75
2022/08/06 01:14:53;;;;;;;13.35;4.00;;;;;;;10.99;81.27;102465.00;5068692;28;20032;-75
2022/08/06 01:17:50;;;;;;;10.95;3.92;;;;;;;11.01;80.78;102463.13;5070626;28;20032;-75
2022/08/06 01:20:16;;;;;;;14.93;4.60;;;;;;;10.98;81.56;102468.66;5066230;28;20059;-75
2022/08/06 01:22:47;;;;;;;12.05;3.60;;;;;;;10.99;81.59;102466.84;5071778;28;20063;-75
2022/08/06 01:25:34;;;;;;;12.25;3.70;;;;;;;11.00;80.89;102464.06;5066457;28;20140;-75
2022/08/06 01:28:12;;;;;;;14.48;4.55;;;;;;;10.98;81.16;102463.28;5069741;28;20112;-75
2022/08/06 01:30:52;;;;;;;13.52;4.40;;;;;;;10.97;81.27;102469.59;5067065;28;20044;-75
2022/08/06 01:33:28;;;;;;;15.45;3.97;;;;;;;10.97;81.66;102466.91;5067879;28;20099;-75
2022/08/06 01:35:58;;;;;;;12.55;4.18;;;;;;;10.96;81.64;102469.69;5061314;28;20365;-75
2022/08/06 01:38:32;;;;;;;12.93;3.95;;;;;;;10.95;81.70;102466.13;5071182;28;20045;-75
2022/08/06 01:41:01;;;;;;;14.40;4.47;;;;;;;10.93;82.15;102467.16;5068545;28;20032;-75
2022/08/06 01:43:30;;;;;;;11.52;4.10;;;;;;;10.95;81.27;102466.13;5054311;28;20020;-75
2022/08/06 01:45:57;;;;;;;14.80;4.65;;;;;;;10.91;81.53;102471.72;5063864;28;20024;-75
2022/08/06 01:48:25;;;;;;;14.93;3.97;;;;;;;10.84;81.26;102469.31;5069568;28;20124;-75
2022/08/06 01:50:54;;;;;;;13.88;4.30;;;;;;;10.82;81.71;102470.34;5068030;28;20020;-75
2022/08/06 01:53:25;;;;;;;14.07;4.40;;;;;;;10.77;81.96;102472.41;5070740;28;20512;-75
2022/08/06 01:55:54;;;;;;;13.10;4.53;;;;;;;10.80;82.03;102473.09;5063884;28;20067;-75
2022/08/06 01:58:24;;;;;;;15.38;4.80;;;;;;;10.80;81.96;102475.78;5070914;28;20032;-75
2022/08/06 02:00:51;;;;;;;18.00;5.40;;;;;;;10.82;82.46;102476.59;5068477;28;20476;-75
2022/08/06 02:03:24;;;;;;;18.23;4.60;;;;;;;10.82;82.31;102481.09;5069106;28;20104;-75
2022/08/06 02:05:53;;;;;;;14.50;5.18;;;;;;;10.82;82.33;102476.59;5069517;28;20035;-75
2022/08/06 02:08:22;;;;;;;16.45;5.53;;;;;;;10.83;82.68;102478.38;5070586;28;20023;-75
2022/08/06 02:10:50;;;;;;;18.15;5.45;;;;;;;10.81;82.59;102472.16;5068573;28;20028;-75
2022/08/06 02:13:17;;;;;;;15.10;5.53;;;;;;;10.83;82.32;102477.47;5069053;28;20488;-75
2022/08/06 02:15:44;;;;;;;14.57;4.70;;;;;;;10.80;82.45;102475.78;5070147;28;20052;-75
2022/08/06 02:18:10;;;;;;;15.80;5.82;;;;;;;10.81;82.62;102474.84;5069041;28;20028;-75
2022/08/06 02:20:41;;;;;;;16.90;5.43;;;;;;;10.82;82.54;102476.59;5069285;28;20024;-75
2022/08/06 02:23:14;;;;;;;16.77;6.10;;;;;;;10.83;82.63;102472.97;5071211;28;20036;-75
2022/08/06 02:25:41;;;;;;;14.80;5.38;;;;;;;10.79;82.75;102475.88;5068825;28;20031;-75
2022/08/06 02:28:09;;;;;;;15.80;5.10;;;;;;;10.78;82.67;102482.22;5069750;28;20051;-75
2022/08/06 02:30:38;;;;;;;14.93;5.18;;;;;;;10.79;82.49;102478.56;5068601;28;20036;-75
2022/08/06 02:33:04;;;;;;;12.50;4.72;;;;;;;10.72;82.52;102475.31;5068470;28;20078;-75
2022/08/06 02:35:33;;;;;;;16.30;5.35;;;;;;;10.72;82.61;102482.47;5070801;28;20029;-75
2022/08/06 02:38:03;;;;;;;17.05;4.97;;;;;;;10.72;82.56;102483.38;5072375;28;20082;-75
2022/08/06 02:40:40;;;;;;;17.77;5.13;;;;;;;10.69;82.49;102483.53;5071600;28;20392;-75
2022/08/06 02:43:14;;;;;;;15.48;4.72;;;;;;;10.66;82.40;102481.00;5073332;28;20104;-75
2022/08/06 02:45:46;;;;;;;13.90;4.57;;;;;;;10.64;82.26;102478.38;5056791;28;20051;-75
2022/08/06 02:48:24;;;;;;;15.65;5.07;;;;;;;10.64;82.14;102482.84;5057082;28;20067;-75
2022/08/06 02:50:53;;;;;;;15.32;4.78;;;;;;;10.61;82.68;102488.38;5072806;28;20052;-75
2022/08/06 02:53:23;;;;;;;12.23;4.15;;;;;;;10.57;82.40;102484.09;5066166;28;20503;-75
2022/08/06 02:55:55;;;;;;;12.43;4.35;;;;;;;10.53;82.24;102479.78;5072472;28;20020;-75
2022/08/06 02:58:33;;;;;;;11.20;3.92;;;;;;;10.48;82.50;102480.91;5074335;28;20038;-75
2022/08/06 03:01:02;;;;;;;12.43;3.80;;;;;;;10.46;82.41;102477.41;5069445;28;20143;-75
2022/08/06 03:03:28;;;;;;;;;;;;;;;10.51;80.63;102481.69;5072475;28;20448;-75
2022/08/06 03:05:56;;;;;;;18.60;4.60;;;;;;;10.41;81.92;102484.81;5072875;28;20348;-75
2022/08/06 03:08:24;;;;;;;13.60;3.78;;;;;;;10.38;82.37;102482.28;5071932;28;20024;-75
2022/08/06 03:10:52;;;;;;;14.15;4.00;;;;;;;10.37;82.44;102483.22;5069678;28;20392;-75
2022/08/06 03:13:21;;;;;;;14.38;4.05;;;;;;;10.34;82.23;102483.34;5072971;28;20040;-75
2022/08/06 03:15:47;;;;;;;11.70;4.65;;;;;;;10.35;82.11;102479.72;5074028;28;20024;-75
2022/08/06 03:18:15;;;;;;;12.18;3.85;;;;;;;10.33;82.43;102489.63;5074192;28;20111;-75
2022/08/06 03:20:42;;;;;;;8.95;3.72;;;;;;;10.29;82.26;102482.66;5071681;28;20031;-75
2022/08/06 03:23:08;;;;;;;12.93;3.90;;;;;;;10.26;82.45;102488.16;5072963;28;20024;-75
2022/08/06 03:25:36;;;;;;;12.25;4.40;;;;;;;10.26;82.55;102491.75;5073744;28;20052;-75
2022/08/06 03:28:03;;;;;;;10.68;3.58;;;;;;;10.26;82.11;102498.91;5072700;28;20542;-75
2022/08/06 03:30:29;;;;;;;10.38;3.67;;;;;;;10.25;82.35;102491.78;5070299;28;20045;-75
2022/08/06 03:32:55;;;;;;;11.07;4.03;;;;;;;10.22;82.14;102495.50;5072612;28;20481;-75
2022/08/06 03:35:21;;;;;;;12.05;4.03;;;;;;;10.15;81.72;102505.66;5071670;28;20024;-75
2022/08/06 03:37:49;;;;;;;12.10;3.90;;;;;;;10.14;82.19;102498.53;5057241;28;20028;-75
2022/08/06 03:40:17;;;;;;;12.05;4.15;;;;;;;10.15;82.58;102510.16;5072260;28;20055;-75
2022/08/06 03:42:42;;;;;;;9.25;3.75;;;;;;;10.09;82.29;102511.31;5069924;28;20104;-75
2022/08/06 03:45:08;;;;;;;13.82;4.35;;;;;;;10.09;82.40;102503.25;5072314;28;20211;-75
2022/08/06 03:47:39;;;;;;;15.13;4.72;;;;;;;10.08;82.42;102506.88;5071716;28;20028;-75
2022/08/06 03:50:11;;;;;;;10.10;4.07;;;;;;;10.04;82.62;102512.44;5072063;28;20431;-75
2022/08/06 03:52:57;;;;;;;11.15;3.97;;;;;;;10.03;82.51;102503.53;5071218;28;20028;-75
2022/08/06 03:55:26;;;;;;;13.20;3.92;;;;;;;10.01;82.43;102515.28;5071452;28;20567;-75
2022/08/06 03:57:54;;;;;;;14.30;4.70;;;;;;;10.00;82.84;102514.41;5071833;28;20032;-75
2022/08/06 04:00:24;;;;;;;12.20;4.15;;;;;;;9.96;82.74;102512.78;5068722;28;20086;-75
2022/08/06 04:02:51;;;;;;;16.83;5.13;;;;;;;9.95;82.99;102519.09;5072347;28;20021;-75
2022/08/06 04:05:20;;;;;;;15.23;4.68;;;;;;;9.93;83.27;102526.38;5067579;28;20027;-75
2022/08/06 04:07:52;;;;;;;13.10;4.47;;;;;;;9.90;82.87;102527.38;5063667;28;20029;-75
2022/08/06 04:10:19;;;;;;;14.48;4.72;;;;;;;9.89;82.88;102527.44;5066450;28;20299;-75
2022/08/06 04:12:45;;;;;;;8.63;3.75;;;;;;;9.88;83.00;102528.34;5071320;28;20038;-75
2022/08/06 04:15:13;;;;;;;11.68;4.68;;;;;;;9.87;82.81;102523.91;5060301;28;20111;-75
2022/08/06 04:17:41;;;;;;;9.52;4.10;;;;;;;9.86;83.29;102535.63;5069460;28;20063;-75
2022/08/06 04:20:08;;;;;;;12.57;4.25;;;;;;;9.86;83.42;102532.94;5068556;28;20067;-75
2022/08/06 04:22:34;;;;;;;13.80;4.50;;;;;;;9.88;83.38;102540.00;5068775;28;20557;-75
2022/08/06 04:24:59;;;;;;;10.52;4.05;;;;;;;9.85;83.50;102533.88;5070681;28;20028;-75
2022/08/06 04:27:27;;;;;;;15.50;5.22;;;;;;;9.86;83.58;102541.00;5057530;28;20028;-75
2022/08/06 04:29:54;;;;;;;14.98;4.57;;;;;;;9.84;83.43;102545.53;5062245;28;20525;-75
2022/08/06 04:32:21;;;;;;;13.95;4.72;;;;;;;9.84;83.66;102548.22;5070841;28;20365;-75
2022/08/06 04:34:48;;;;;;;14.20;4.75;;;;;;;9.83;83.53;102541.13;5071605;28;20024;-75
2022/08/06 04:37:14;;;;;;;12.77;4.30;;;;;;;9.82;84.01;102547.44;5065009;28;20028;-75
2022/08/06 04:39:40;;;;;;;15.52;4.40;;;;;;;9.82;83.67;102542.06;5063024;28;20032;-75
2022/08/06 04:42:07;;;;;;;13.90;4.80;;;;;;;9.84;83.83;102545.53;5066263;28;20032;-75
2022/08/06 04:44:33;;;;;;;15.40;4.53;;;;;;;9.87;83.96;102540.03;5068754;28;20055;-75
2022/08/06 04:46:59;;;;;;;12.13;4.72;;;;;;;9.87;84.07;102548.09;5070650;28;20028;-75
2022/08/06 04:49:24;;;;;;;15.38;4.88;;;;;;;9.87;84.17;102548.09;5072425;28;20484;-75
2022/08/06 04:51:49;;;;;;;13.68;5.03;;;;;;;9.87;84.37;102556.16;5068011;28;20521;-75
2022/08/06 04:54:15;;;;;;;14.38;4.80;;;;;;;9.90;84.73;102556.91;5069675;28;20081;-75
2022/08/06 04:56:42;;;;;;;13.70;4.95;;;;;;;9.90;84.81;102558.72;5069717;28;20039;-75
2022/08/06 04:59:09;;;;;;;16.88;4.90;;;;;;;9.93;84.76;102561.28;5072101;28;20032;-75
2022/08/06 05:01:35;;;;;;;11.73;4.35;;;;;;;9.98;85.27;102559.25;5066936;28;20025;-75
2022/08/06 05:04:01;;;;;;;14.70;4.60;;;;;;;10.00;85.21;102564.56;5065840;28;20039;-75
2022/08/06 05:06:52;;;;;;;11.93;4.05;;;;;;;10.06;84.31;102559.81;5071093;28;20476;-75
2022/08/06 05:09:23;;;;;;;14.13;4.97;;;;;;;10.12;85.46;102567.59;5070902;28;20047;-74
2022/08/06 05:12:01;;;;;;;12.10;4.65;;;;;;;10.13;85.23;102563.97;5070144;28;20384;-74
2022/08/06 05:14:40;;;;;;;13.38;4.93;;;;;;;10.15;85.34;102570.13;5070039;28;20035;-74
2022/08/06 05:17:10;;;;;;;14.50;5.07;;;;;;;10.20;85.76;102561.88;5070897;28;20473;-74
2022/08/06 05:19:41;;;;;;;;;;;;;;;10.29;84.01;102568.66;5071875;28;20103;-74
2022/08/06 05:22:08;;;;;;;15.50;5.07;;;;;;;10.33;86.39;102572.94;5064903;28;20284;-74
2022/08/06 05:24:34;;;;;;;12.18;4.72;;;;;;;10.37;86.48;102577.28;5068929;28;20025;-74
2022/08/06 05:26:59;;;;;;;15.65;5.43;;;;;;;10.45;86.43;102583.19;5068394;28;20097;-74
2022/08/06 05:29:24;;;;;;;20.35;6.05;;;;;;;10.53;87.00;102582.84;5070346;28;20040;-74
2022/08/06 05:31:57;;;;;;;16.83;5.25;;;;;;;10.62;86.77;102584.25;5068769;28;20109;-74
2022/08/06 05:34:22;;;;;;;16.17;5.68;;;;;;;10.71;86.94;102578.44;5069771;28;20044;-74
2022/08/06 05:36:47;;;;;;;16.20;5.28;;;;;;;10.83;87.42;102582.38;5070794;28;20032;-74
2022/08/06 05:39:12;;;;;;;15.95;5.25;;;;;;;10.93;86.96;102580.13;5070679;28;20115;-74
2022/08/06 05:41:38;;;;;;;16.88;5.60;;;;;;;10.99;86.27;102588.75;5063446;28;20025;-74
2022/08/06 05:44:03;;;;;;;17.80;6.63;;;;;;;11.08;86.75;102590.16;5062631;28;20059;-74
2022/08/06 05:46:40;;;;;;;15.43;5.55;;;;;;;11.17;86.87;102588.84;5068988;28;20137;-74
2022/08/06 05:49:09;;;;;;;17.48;6.45;;;;;;;11.30;87.61;102587.31;5069891;28;20036;-74
2022/08/06 05:51:55;;;;;;;20.63;6.38;;;;;;;11.43;87.26;102598.34;5062368;28;20495;-74
2022/08/06 05:54:27;;;;;;;17.00;6.60;;;;;;;11.53;87.72;102598.78;5067172;28;20036;-74
2022/08/06 05:57:05;;;;;;;17.88;5.85;;;;;;;11.63;88.94;102589.28;5069740;28;20092;-74
2022/08/06 05:59:34;;;;;;;15.90;5.47;;;;;;;11.72;88.91;102596.03;5070599;28;20039;-74
2022/08/06 06:02:01;;;;;;;18.88;6.10;;;;;;;11.79;89.31;102594.78;5068435;28;20058;-74
2022/08/06 06:04:26;;;;;;;23.65;5.90;;;;;;;11.87;89.03;102597.97;5069234;28;20028;-74
2022/08/06 06:06:51;;;;;;;20.83;6.88;;;;;;;11.95;88.95;102599.41;5071010;28;20029;-74
2022/08/06 06:09:17;;;;;;;20.88;7.20;;;;;;;12.03;89.42;102603.44;5069457;28;20495;-74
2022/08/06 06:11:43;;;;;;;23.35;6.80;;;;;;;12.13;89.08;102605.69;5069119;28;20166;-74
2022/08/06 06:14:22;;;;;;;21.92;7.07;;;;;;;12.23;88.55;102607.81;5071328;28;20025;-74
2022/08/06 06:17:24;;;;;;;16.13;6.10;;;;;;;12.34;87.00;102601.00;5073873;28;20495;-74
2022/08/06 06:20:09;;;;;;;14.35;5.50;;;;;;;12.46;87.62;102607.56;5063268;28;20090;-74
2022/08/06 06:22:56;;;;;;;18.67;5.18;;;;;;;12.60;87.55;102605.00;5072194;28;20036;-74
2022/08/06 06:26:00;;;;;;;18.95;6.10;;;;;;;12.72;87.05;102600.75;5064187;28;20108;-74
2022/08/06 06:28:34;;;;;;;17.40;6.15;;;;;;;12.82;86.31;102602.00;5068246;28;20035;-74
2022/08/06 06:31:26;;;;;;;16.70;6.13;;;;;;;12.93;85.83;102596.88;5073799;28;20525;-74
2022/08/06 06:34:06;;;;;;;16.05;5.88;;;;;;;13.07;86.01;102603.34;5072056;28;20568;-74
2022/08/06 06:36:46;;;;;;;19.10;6.38;;;;;;;13.17;87.58;102606.41;5073543;28;20047;-74
2022/08/06 06:39:37;;;;;;;19.05;6.15;;;;;;;13.29;85.66;102608.41;5073754;28;20032;-74
2022/08/06 06:42:31;;;;;;;15.65;5.78;;;;;;;13.39;86.11;102609.66;5071648;28;20037;-74
2022/08/06 06:45:13;;;;;;;16.85;5.75;;;;;;;13.50;86.80;102614.47;5060667;28;20021;-71
2022/08/06 06:47:59;;;;;;;15.50;5.32;;;;;;;13.60;86.51;102612.97;5067150;28;20024;-71
2022/08/06 06:50:34;;;;;;;14.15;4.00;;;;;;;13.64;80.89;102614.50;5072829;28;20032;-71
2022/08/06 06:53:01;;;;;;;8.25;3.17;;;;;;;13.68;75.19;102620.63;5071943;28;20397;-71
2022/08/06 06:55:37;;;;;;;8.60;3.33;;;;;;;13.73;76.20;102623.91;5072024;28;20024;-71
2022/08/06 06:58:07;;;;;;;13.57;3.40;;;;;;;13.80;74.86;102613.63;5070812;28;20032;-71
2022/08/06 07:00:34;;;;;;;9.85;3.00;;;;;;;13.85;73.15;102616.94;5072630;28;20027;-71
2022/08/06 07:03:01;;;;;;;7.47;2.50;;;;;;;13.92;73.08;102618.28;5068821;28;20025;-71
2022/08/06 07:05:30;;;;;;;5.68;2.40;;;;;;;14.00;73.74;102620.56;5071649;28;20392;-71
2022/08/06 07:07:57;;;;;;;4.47;2.17;;;;;;;14.04;69.46;102615.81;5070150;28;20044;-71
2022/08/06 07:10:24;;;;;;;6.25;2.42;;;;;;;14.13;72.96;102615.28;5068272;28;20028;-70
2022/08/06 07:12:50;;;;;;;8.63;2.80;;;;;;;14.26;76.70;102624.41;5073553;28;20034;-70
2022/08/06 07:15:17;;;;;;;7.18;2.40;;;;;;;14.30;74.26;102622.38;5070626;28;20021;-71
2022/08/06 07:17:44;;;;;;;7.80;2.63;;;;;;;14.37;72.09;102622.88;5072317;28;20024;-71
2022/08/06 07:20:12;;;;;;;5.70;2.40;;;;;;;14.41;68.82;102632.56;5071013;28;20035;-71
2022/08/06 07:22:41;;;;;;;8.77;1.80;;;;;;;14.48;70.51;102639.28;5070796;28;20016;-71
2022/08/06 07:25:08;;;;;;;6.50;1.97;;;;;;;14.55;71.93;102634.41;5068487;28;20032;-71
2022/08/06 07:27:37;;;;;;;6.03;1.88;;;;;;;14.66;73.78;102631.94;5067571;28;20035;-71
2022/08/06 07:30:03;;;;;;;7.18;2.45;;;;;;;14.75;74.37;102633.19;5069357;28;20048;-70
2022/08/06 07:32:30;;;;;;;6.32;2.05;;;;;;;14.84;74.43;102635.31;5067819;28;20395;-71
2022/08/06 07:34:55;;;;;;;8.07;2.65;;;;;;;14.95;75.67;102638.22;5071090;28;20030;-72
2022/08/06 07:37:22;;;;;;;6.25;2.00;;;;;;;15.02;72.34;102642.28;5071852;28;20025;-72
2022/08/06 07:39:51;;;;;;;5.95;1.95;;;;;;;15.12;72.76;102647.97;5066315;28;20543;-72
2022/08/06 07:42:18;;;;;;;7.95;2.05;;;;;;;15.17;71.66;102639.56;5068784;28;20027;-72
2022/08/06 07:44:47;;;;;;;6.68;1.65;;;;;;;15.21;69.86;102641.09;5071130;28;20044;-73
2022/08/06 07:47:19;;;;;;;7.05;2.13;;;;;;;15.32;72.42;102645.81;5071158;28;20038;-73
2022/08/06 07:49:48;;;;;;;5.05;1.70;;;;;;;15.39;71.24;102647.16;5085409;28;20029;-73
2022/08/06 07:52:17;;;;;;;6.75;1.70;;;;;;;15.50;73.12;102646.47;5084486;28;20499;-71
2022/08/06 07:54:43;;;;;;;7.90;2.13;;;;;;;15.57;70.22;102650.50;5070627;28;20034;-71
2022/08/06 07:57:10;;;;;;;7.18;2.17;;;;;;;15.64;69.57;102653.69;5071193;28;20040;-71
2022/08/06 07:59:36;;;;;;;6.03;1.90;;;;;;;15.69;70.75;102652.38;5066804;28;20528;-70
2022/08/06 08:02:03;;;;;;;5.97;2.30;;;;;;;15.76;70.44;102662.84;5070771;28;20096;-70
2022/08/06 08:07:14;;;;;;;6.35;2.03;;;;;;;15.90;69.65;102662.81;5065193;28;20028;-71
2022/08/06 08:09:44;;;;;;;4.63;1.98;;;;;;;15.96;70.18;102658.81;5078717;28;20024;-70
2022/08/06 08:12:15;;;;;;;7.47;2.45;;;;;;;16.02;68.05;102664.72;5067764;28;20021;-71
2022/08/06 08:14:43;;;;;;;9.75;2.30;;;;;;;16.06;68.87;102662.66;5068385;28;20476;-71
2022/08/06 08:17:08;;;;;;;8.60;2.85;;;;;;;16.12;67.50;102662.25;5068577;28;20024;-70
2022/08/06 08:19:34;;;;;;;2.40;1.67;;;;;;;16.17;69.41;102664.66;5067962;28;20104;-70
2022/08/06 08:22:05;;;;;;;6.43;2.22;;;;;;;16.21;66.87;102663.47;5068287;28;20079;-71
2022/08/06 08:24:32;;;;;;;9.77;2.25;;;;;;;16.25;68.91;102659.53;5065501;28;20606;-71
2022/08/06 08:26:58;;;;;;;3.38;1.88;;;;;;;16.32;68.60;102655.44;5081504;28;20031;-70
2022/08/06 08:29:23;;;;;;;10.45;2.67;;;;;;;16.40;68.85;102657.66;5066900;28;20040;-71
2022/08/06 08:31:49;;;;;;;7.03;1.80;;;;;;;16.49;67.76;102656.13;5066698;28;20032;-71
2022/08/06 08:34:14;;;;;;;3.55;1.83;;;;;;;16.55;65.72;102667.41;5068066;28;20106;-71
2022/08/06 08:36:40;;;;;;;6.40;2.25;;;;;;;16.63;64.69;102669.59;5067308;28;20028;-72
2022/08/06 08:39:06;;;;;;;5.68;2.00;;;;;;;16.67;65.84;102665.69;5067015;28;20037;-70
2022/08/06 08:41:35;;;;;;;9.13;2.00;;;;;;;16.72;64.73;102660.81;5069323;28;20354;-71
2022/08/06 08:44:06;;;;;;;3.33;1.67;;;;;;;16.74;64.18;102661.56;5070098;28;20040;-71
2022/08/06 08:46:42;;;;;;;10.05;2.40;;;;;;;16.85;65.50;102660.81;5068597;28;20445;-71
2022/08/06 08:49:19;;;;;;;6.53;1.65;;;;;;;16.94;64.24;102664.72;5068656;28;20392;-71
2022/08/06 08:51:46;;;;;;;6.90;2.00;;;;;;;16.96;62.27;102664.66;5071748;28;20020;-72
2022/08/06 08:54:15;;;;;;;9.90;2.20;;;;;;;17.02;62.27;102659.63;5066755;28;20032;-72
2022/08/06 08:56:42;;;;;;;6.22;1.92;;;;;;;17.06;59.68;102666.56;5067036;28;20024;-72
2022/08/06 08:59:08;;;;;;;4.32;1.98;;;;;;;17.14;60.91;102660.56;5069655;28;20475;-73
2022/08/06 09:01:34;;;;;;;4.63;1.52;;;;;;;17.22;61.77;102665.44;5068153;28;20076;-71
2022/08/06 09:04:04;;;;;;;9.18;1.92;;;;;;;17.30;60.70;102666.63;5068488;28;20039;-70
2022/08/06 09:06:30;;;;;;;6.22;2.00;;;;;;;17.35;61.80;102666.31;5069889;28;20029;-71
2022/08/06 09:08:55;;;;;;;2.92;1.38;;;;;;;17.41;62.41;102667.69;5068791;28;20028;-72
2022/08/06 09:11:22;;;;;;;8.10;1.92;;;;;;;17.45;61.41;102661.06;5062322;28;20032;-72
2022/08/06 09:13:47;;;;;;;8.35;2.40;;;;;;;17.54;60.02;102673.09;5066642;28;20150;-71
2022/08/06 09:16:12;;;;;;;10.95;3.13;;;;;;;17.62;60.66;102663.38;5066372;28;20115;-71
2022/08/06 09:18:38;;;;;;;10.52;3.03;;;;;;;17.70;59.78;102676.44;5064839;28;20376;-71
2022/08/06 09:21:04;;;;;;;7.18;2.10;;;;;;;17.76;57.24;102669.63;5068758;28;20039;-71
2022/08/06 09:23:30;;;;;;;5.85;1.90;;;;;;;17.81;60.13;102673.75;5069643;28;20028;-71
2022/08/06 09:25:55;;;;;;;5.75;1.70;;;;;;;17.87;56.74;102679.72;5070200;28;20043;-71
2022/08/06 09:28:41;;;;;;;9.52;2.13;;;;;;;17.94;58.80;102672.88;5069548;28;20032;-72
2022/08/06 09:31:11;;;;;;;2.30;1.60;;;;;;;17.99;56.70;102678.81;5065947;28;20049;-71
2022/08/06 09:33:38;;;;;;;;;;;;;;;18.05;60.68;102675.63;5068678;28;20020;-71
2022/08/06 09:36:12;;;;;;;4.70;1.67;;;;;;;18.07;57.33;102670.97;5069101;28;19999;-71
2022/08/06 09:38:48;;;;;;;5.07;1.73;;;;;;;18.13;57.81;102675.91;5069283;28;20039;-71
2022/08/06 09:41:16;;;;;;;6.25;2.00;;;;;;;18.12;58.19;102676.91;5070766;28;20051;-71
2022/08/06 09:43:46;;;;;;;18.02;5.32;;;;;;;18.04;55.68;102679.34;5070055;28;20186;-72
2022/08/06 09:46:12;;;;;;;18.13;4.63;;;;;;;18.05;56.88;102675.63;5071935;28;20024;-71
2022/08/06 09:48:55;;;;;;;6.82;2.00;;;;;;;18.09;56.99;102676.28;5075607;28;20044;-71
2022/08/06 09:51:22;;;;;;;5.50;2.13;;;;;;;18.09;54.11;102682.56;5075426;28;20178;-70
2022/08/06 09:53:55;;;;;;;4.93;1.95;;;;;;;18.13;54.74;102689.53;5075631;28;20377;-71
2022/08/06 09:56:21;;;;;;;4.53;1.70;;;;;;;18.17;54.42;102682.88;5075629;28;20032;-71
2022/08/06 09:58:47;;;;;;;3.47;1.95;;;;;;;18.25;55.58;102684.13;5075306;28;20099;-71
2022/08/06 10:01:12;;;;;;;4.18;1.65;;;;;;;18.30;53.36;102679.19;5073926;28;20468;-70
2022/08/06 10:03:39;;;;;;;4.25;1.50;;;;;;;18.35;53.69;102679.72;5075865;28;20361;-71
2022/08/06 10:06:08;;;;;;;6.53;1.70;;;;;;;18.37;55.06;102680.44;5072521;28;20040;-71
2022/08/06 10:08:33;;;;;;;3.47;1.88;;;;;;;18.40;54.90;102674.75;5073796;28;20070;-71
2022/08/06 10:11:02;;;;;;;15.05;4.32;;;;;;;18.47;54.69;102686.91;5074760;28;20028;-71
2022/08/06 10:13:29;;;;;;;11.10;3.40;;;;;;;18.51;53.45;102679.41;5072547;28;20027;-71
2022/08/06 10:15:57;;;;;;;9.80;3.20;;;;;;;18.50;52.38;102674.94;5075362;28;20029;-71
2022/08/06 10:18:37;;;;;;;8.05;2.03;;;;;;;18.52;54.39;102679.28;5075174;28;20029;-70
2022/08/06 10:21:07;;;;;;;8.15;2.80;;;;;;;18.57;54.27;102675.31;5075004;28;20025;-71
2022/08/06 10:23:34;;;;;;;19.75;3.78;;;;;;;18.61;52.95;102674.06;5075385;28;20029;-69
2022/08/06 10:26:02;;;;;;;12.65;3.33;;;;;;;18.65;50.73;102676.47;5074965;28;20029;-70
2022/08/06 10:28:28;;;;;;;10.00;2.90;;;;;;;18.56;49.48;102665.41;5075038;28;20104;-71
2022/08/06 10:30:54;;;;;;;3.47;1.63;;;;;;;18.61;51.22;102663.19;5074350;28;20098;-72
2022/08/06 10:33:23;;;;;;;9.23;2.20;;;;;;;18.66;51.98;102663.69;5075156;28;20085;-70
2022/08/06 10:35:54;;;;;;;8.60;2.03;;;;;;;18.72;52.44;102663.22;5075142;28;20473;-71
2022/08/06 10:38:24;;;;;;;6.53;2.13;;;;;;;18.79;53.78;102655.44;5074251;28;20099;-70
2022/08/06 10:40:52;;;;;;;9.13;2.58;;;;;;;18.80;52.65;102655.31;5074475;28;20028;-70
2022/08/06 10:43:18;;;;;;;14.48;4.40;;;;;;;18.76;52.31;102653.81;5071046;28;20034;-70
2022/08/06 10:45:43;;;;;;;10.98;3.42;;;;;;;18.69;51.70;102647.13;5070613;28;20078;-70
2022/08/06 10:48:09;;;;;;;19.45;3.08;;;;;;;18.65;51.96;102653.78;5066874;28;20041;-70
2022/08/06 10:50:34;;;;;;;4.57;1.90;;;;;;;18.65;50.06;102656.50;5068424;28;20024;-70
2022/08/06 10:53:01;;;;;;;6.05;1.98;;;;;;;18.65;50.33;102651.94;5068346;28;20039;-70
2022/08/06 10:55:29;;;;;;;3.72;1.63;;;;;;;18.71;51.28;102645.13;5069904;28;20480;-70
2022/08/06 10:57:55;;;;;;;6.85;1.80;;;;;;;18.73;50.73;102654.06;5072660;28;20024;-70
2022/08/06 11:00:21;;;;;;;10.85;1.85;;;;;;;18.74;51.54;102642.19;5070184;28;20123;-70
2022/08/06 11:03:01;;;;;;;8.45;2.20;;;;;;;18.81;53.11;102646.13;5073673;28;20118;-70
2022/08/06 11:05:36;;;;;;;4.55;1.70;;;;;;;18.78;52.25;102643.66;5074149;28;20074;-70
2022/08/06 11:08:13;;;;;;;2.00;1.40;;;;;;;18.76;50.97;102644.78;5069106;28;20038;-70
2022/08/06 11:11:16;;;;;;;3.53;1.63;;;;;;;18.79;51.51;102650.84;5057875;28;20024;-70
2022/08/06 11:14:10;;;;;;;1.73;0.90;;;;;;;18.89;50.96;102647.41;5071817;28;20036;-70
2022/08/06 11:16:36;;;;;;;7.03;1.75;;;;;;;18.98;48.79;102644.81;5072086;28;20342;-69
2022/08/06 11:19:10;;;;;;;5.93;1.83;;;;;;;19.05;49.31;102642.47;5071038;28;20032;-70
2022/08/06 11:21:42;;;;;;;6.88;1.55;;;;;;;19.05;49.60;102639.75;5059030;28;20032;-70
2022/08/06 11:24:08;;;;;;;7.45;1.75;;;;;;;19.12;46.23;102637.38;5067068;28;20389;-70
2022/08/06 11:26:39;;;;;;;2.35;1.10;;;;;;;19.18;46.54;102639.59;5069823;28;20037;-70
2022/08/06 11:29:09;;;;;;;5.25;1.67;;;;;;;19.24;46.90;102627.31;5066563;28;20069;-70
2022/08/06 11:31:36;;;;;;;4.90;1.58;;;;;;;19.28;47.53;102637.84;5073113;28;20436;-70
2022/08/06 11:34:05;;;;;;;3.63;1.50;;;;;;;19.34;44.89;102637.34;5072290;28;20052;-70
2022/08/06 11:36:46;;;;;;;5.30;1.10;;;;;;;19.39;47.34;102629.66;5073558;28;20047;-70